sensor_id;sensor_type;location;lat;lon;timestamp;P1;durP1;ratioP1;P2;durP2;ratioP2
69878;SDS011;57161;43.136;24.706;2022-12-29T00:01:25;11.25;;;7.70;;
69878;SDS011;57161;43.136;24.706;2022-12-29T00:03:50;12.35;;;8.45;;
69878;SDS011;57161;43.136;24.706;2022-12-29T00:06:16;8.57;;;5.75;;
69878;SDS011;57161;43.136;24.706;2022-12-29T00:08:41;21.25;;;14.82;;
69878;SDS011;57161;43.136;24.706;2022-12-29T00:11:08;10.50;;;5.50;;
69878;SDS011;57161;43.136;24.706;2022-12-29T00:13:35;46.70;;;27.80;;
69878;SDS011;57161;43.136;24.706;2022-12-29T00:16:19;21.73;;;12.07;;
69878;SDS011;57161;43.136;24.706;2022-12-29T00:18:45;15.05;;;9.20;;
69878;SDS011;57161;43.136;24.706;2022-12-29T00:21:13;11.65;;;6.45;;
69878;SDS011;57161;43.136;24.706;2022-12-29T00:23:58;17.42;;;10.82;;
69878;SDS011;57161;43.136;24.706;2022-12-29T00:29:46;16.73;;;8.40;;
69878;SDS011;57161;43.136;24.706;2022-12-29T00:32:30;13.15;;;7.43;;
69878;SDS011;57161;43.136;24.706;2022-12-29T00:35:19;13.65;;;6.90;;
69878;SDS011;57161;43.136;24.706;2022-12-29T00:37:52;19.17;;;10.32;;
69878;SDS011;57161;43.136;24.706;2022-12-29T00:40:37;11.45;;;6.22;;
69878;SDS011;57161;43.136;24.706;2022-12-29T00:43:21;10.73;;;5.47;;
69878;SDS011;57161;43.136;24.706;2022-12-29T00:46:04;26.00;;;14.88;;
69878;SDS011;57161;43.136;24.706;2022-12-29T00:48:30;12.32;;;7.65;;
69878;SDS011;57161;43.136;24.706;2022-12-29T00:51:14;21.40;;;13.73;;
69878;SDS011;57161;43.136;24.706;2022-12-29T00:53:40;16.70;;;9.02;;
69878;SDS011;57161;43.136;24.706;2022-12-29T00:56:05;23.00;;;14.38;;
69878;SDS011;57161;43.136;24.706;2022-12-29T00:58:31;11.23;;;5.70;;
69878;SDS011;57161;43.136;24.706;2022-12-29T01:01:06;7.82;;;5.07;;
69878;SDS011;57161;43.136;24.706;2022-12-29T01:03:36;9.23;;;5.53;;
69878;SDS011;57161;43.136;24.706;2022-12-29T01:06:04;7.43;;;4.45;;
69878;SDS011;57161;43.136;24.706;2022-12-29T01:08:30;11.40;;;7.15;;
69878;SDS011;57161;43.136;24.706;2022-12-29T01:13:25;7.88;;;4.80;;
69878;SDS011;57161;43.136;24.706;2022-12-29T01:15:51;7.10;;;5.18;;
69878;SDS011;57161;43.136;24.706;2022-12-29T01:18:17;6.97;;;4.40;;
69878;SDS011;57161;43.136;24.706;2022-12-29T01:20:42;8.30;;;5.45;;
69878;SDS011;57161;43.136;24.706;2022-12-29T01:23:08;8.38;;;6.25;;
69878;SDS011;57161;43.136;24.706;2022-12-29T01:25:33;7.97;;;5.57;;
69878;SDS011;57161;43.136;24.706;2022-12-29T01:27:58;8.48;;;5.10;;
69878;SDS011;57161;43.136;24.706;2022-12-29T01:30:24;8.45;;;5.10;;
69878;SDS011;57161;43.136;24.706;2022-12-29T01:32:49;9.23;;;5.25;;
69878;SDS011;57161;43.136;24.706;2022-12-29T01:35:15;7.20;;;4.80;;
69878;SDS011;57161;43.136;24.706;2022-12-29T01:37:40;8.40;;;4.88;;
69878;SDS011;57161;43.136;24.706;2022-12-29T01:40:06;6.55;;;4.70;;
69878;SDS011;57161;43.136;24.706;2022-12-29T01:42:31;7.22;;;4.28;;
69878;SDS011;57161;43.136;24.706;2022-12-29T01:44:58;9.20;;;5.13;;
69878;SDS011;57161;43.136;24.706;2022-12-29T01:52:26;8.32;;;4.72;;
69878;SDS011;57161;43.136;24.706;2022-12-29T01:54:55;11.00;;;5.10;;
69878;SDS011;57161;43.136;24.706;2022-12-29T01:57:24;9.07;;;5.30;;
69878;SDS011;57161;43.136;24.706;2022-12-29T01:59:58;6.30;;;4.32;;
69878;SDS011;57161;43.136;24.706;2022-12-29T02:02:35;8.77;;;4.88;;
69878;SDS011;57161;43.136;24.706;2022-12-29T02:05:07;10.98;;;5.10;;
69878;SDS011;57161;43.136;24.706;2022-12-29T02:07:39;8.60;;;5.22;;
69878;SDS011;57161;43.136;24.706;2022-12-29T02:10:06;8.00;;;5.30;;
69878;SDS011;57161;43.136;24.706;2022-12-29T02:12:32;10.38;;;5.93;;
69878;SDS011;57161;43.136;24.706;2022-12-29T02:14:58;8.05;;;5.13;;
69878;SDS011;57161;43.136;24.706;2022-12-29T02:36:58;21.65;;;13.30;;
69878;SDS011;57161;43.136;24.706;2022-12-29T02:48:01;24.63;;;14.70;;
69878;SDS011;57161;43.136;24.706;2022-12-29T02:50:43;23.58;;;14.10;;
69878;SDS011;57161;43.136;24.706;2022-12-29T02:53:19;31.15;;;16.33;;
69878;SDS011;57161;43.136;24.706;2022-12-29T02:56:06;26.10;;;13.52;;
69878;SDS011;57161;43.136;24.706;2022-12-29T02:58:31;18.27;;;9.65;;
69878;SDS011;57161;43.136;24.706;2022-12-29T03:12:10;15.43;;;8.85;;
69878;SDS011;57161;43.136;24.706;2022-12-29T03:15:02;19.42;;;9.20;;
69878;SDS011;57161;43.136;24.706;2022-12-29T03:17:51;26.15;;;11.90;;
69878;SDS011;57161;43.136;24.706;2022-12-29T03:20:42;22.83;;;12.52;;
69878;SDS011;57161;43.136;24.706;2022-12-29T03:23:16;18.50;;;10.40;;
69878;SDS011;57161;43.136;24.706;2022-12-29T03:25:45;15.50;;;8.45;;
69878;SDS011;57161;43.136;24.706;2022-12-29T03:28:21;15.48;;;8.15;;
69878;SDS011;57161;43.136;24.706;2022-12-29T03:30:50;15.43;;;7.85;;
69878;SDS011;57161;43.136;24.706;2022-12-29T03:33:17;11.85;;;6.10;;
69878;SDS011;57161;43.136;24.706;2022-12-29T03:35:47;9.93;;;6.10;;
69878;SDS011;57161;43.136;24.706;2022-12-29T03:38:23;19.67;;;10.18;;
69878;SDS011;57161;43.136;24.706;2022-12-29T03:40:56;19.30;;;11.75;;
69878;SDS011;57161;43.136;24.706;2022-12-29T03:43:25;26.05;;;13.80;;
69878;SDS011;57161;43.136;24.706;2022-12-29T03:45:52;20.92;;;13.30;;
69878;SDS011;57161;43.136;24.706;2022-12-29T03:48:18;17.40;;;10.98;;
69878;SDS011;57161;43.136;24.706;2022-12-29T03:50:43;17.15;;;10.88;;
69878;SDS011;57161;43.136;24.706;2022-12-29T03:53:08;14.95;;;9.10;;
69878;SDS011;57161;43.136;24.706;2022-12-29T03:55:34;16.83;;;9.88;;
69878;SDS011;57161;43.136;24.706;2022-12-29T03:57:59;14.88;;;8.70;;
69878;SDS011;57161;43.136;24.706;2022-12-29T04:00:25;15.77;;;7.95;;
69878;SDS011;57161;43.136;24.706;2022-12-29T04:02:50;21.55;;;10.60;;
69878;SDS011;57161;43.136;24.706;2022-12-29T04:05:16;19.60;;;9.85;;
69878;SDS011;57161;43.136;24.706;2022-12-29T04:07:41;22.38;;;11.32;;
69878;SDS011;57161;43.136;24.706;2022-12-29T04:10:07;14.40;;;8.02;;
69878;SDS011;57161;43.136;24.706;2022-12-29T04:12:32;13.60;;;8.00;;
69878;SDS011;57161;43.136;24.706;2022-12-29T04:14:58;13.07;;;7.53;;
69878;SDS011;57161;43.136;24.706;2022-12-29T04:17:23;14.65;;;7.30;;
69878;SDS011;57161;43.136;24.706;2022-12-29T04:19:49;14.00;;;7.18;;
69878;SDS011;57161;43.136;24.706;2022-12-29T04:22:15;10.68;;;5.50;;
69878;SDS011;57161;43.136;24.706;2022-12-29T04:24:40;9.80;;;5.38;;
69878;SDS011;57161;43.136;24.706;2022-12-29T04:27:06;9.20;;;4.82;;
69878;SDS011;57161;43.136;24.706;2022-12-29T04:29:31;8.90;;;5.45;;
69878;SDS011;57161;43.136;24.706;2022-12-29T04:31:56;11.35;;;6.60;;
69878;SDS011;57161;43.136;24.706;2022-12-29T04:34:22;24.23;;;12.00;;
69878;SDS011;57161;43.136;24.706;2022-12-29T04:36:47;21.67;;;11.45;;
69878;SDS011;57161;43.136;24.706;2022-12-29T04:39:13;17.88;;;9.02;;
69878;SDS011;57161;43.136;24.706;2022-12-29T04:41:38;16.65;;;9.10;;
69878;SDS011;57161;43.136;24.706;2022-12-29T04:44:04;20.77;;;10.80;;
69878;SDS011;57161;43.136;24.706;2022-12-29T04:46:29;27.20;;;11.95;;
69878;SDS011;57161;43.136;24.706;2022-12-29T04:48:55;22.08;;;11.25;;
69878;SDS011;57161;43.136;24.706;2022-12-29T04:51:20;18.95;;;10.88;;
69878;SDS011;57161;43.136;24.706;2022-12-29T04:53:46;16.58;;;10.07;;
69878;SDS011;57161;43.136;24.706;2022-12-29T04:56:11;18.50;;;9.85;;
69878;SDS011;57161;43.136;24.706;2022-12-29T04:58:38;17.90;;;9.57;;
69878;SDS011;57161;43.136;24.706;2022-12-29T05:01:03;17.23;;;9.07;;
69878;SDS011;57161;43.136;24.706;2022-12-29T05:03:29;16.20;;;8.95;;
69878;SDS011;57161;43.136;24.706;2022-12-29T05:05:54;17.38;;;9.02;;
69878;SDS011;57161;43.136;24.706;2022-12-29T05:08:20;17.00;;;9.40;;
69878;SDS011;57161;43.136;24.706;2022-12-29T05:10:46;16.95;;;10.02;;
69878;SDS011;57161;43.136;24.706;2022-12-29T05:13:12;17.92;;;8.43;;
69878;SDS011;57161;43.136;24.706;2022-12-29T05:15:38;19.05;;;7.00;;
69878;SDS011;57161;43.136;24.706;2022-12-29T05:18:03;18.65;;;9.00;;
69878;SDS011;57161;43.136;24.706;2022-12-29T05:20:29;12.85;;;7.20;;
69878;SDS011;57161;43.136;24.706;2022-12-29T05:22:54;11.85;;;6.07;;
69878;SDS011;57161;43.136;24.706;2022-12-29T05:25:20;10.40;;;6.82;;
69878;SDS011;57161;43.136;24.706;2022-12-29T05:27:45;10.32;;;7.38;;
69878;SDS011;57161;43.136;24.706;2022-12-29T05:30:11;12.30;;;7.07;;
69878;SDS011;57161;43.136;24.706;2022-12-29T05:32:36;11.10;;;7.45;;
69878;SDS011;57161;43.136;24.706;2022-12-29T05:35:02;15.55;;;7.40;;
69878;SDS011;57161;43.136;24.706;2022-12-29T05:37:27;13.85;;;8.10;;
69878;SDS011;57161;43.136;24.706;2022-12-29T05:39:53;12.02;;;7.10;;
69878;SDS011;57161;43.136;24.706;2022-12-29T05:42:18;11.43;;;6.93;;
69878;SDS011;57161;43.136;24.706;2022-12-29T05:44:44;11.32;;;6.30;;
69878;SDS011;57161;43.136;24.706;2022-12-29T05:47:09;11.63;;;6.10;;
69878;SDS011;57161;43.136;24.706;2022-12-29T05:49:35;9.60;;;5.72;;
69878;SDS011;57161;43.136;24.706;2022-12-29T05:52:00;11.88;;;6.28;;
69878;SDS011;57161;43.136;24.706;2022-12-29T05:54:26;13.05;;;6.93;;
69878;SDS011;57161;43.136;24.706;2022-12-29T05:56:51;13.75;;;6.85;;
69878;SDS011;57161;43.136;24.706;2022-12-29T05:59:16;19.27;;;7.32;;
69878;SDS011;57161;43.136;24.706;2022-12-29T06:01:42;16.92;;;9.45;;
69878;SDS011;57161;43.136;24.706;2022-12-29T06:04:07;16.75;;;10.05;;
69878;SDS011;57161;43.136;24.706;2022-12-29T06:06:33;12.60;;;7.65;;
69878;SDS011;57161;43.136;24.706;2022-12-29T06:08:58;39.25;;;19.23;;
69878;SDS011;57161;43.136;24.706;2022-12-29T06:11:24;26.58;;;11.00;;
69878;SDS011;57161;43.136;24.706;2022-12-29T06:13:49;39.92;;;22.30;;
69878;SDS011;57161;43.136;24.706;2022-12-29T06:16:15;27.58;;;14.18;;
69878;SDS011;57161;43.136;24.706;2022-12-29T06:18:40;42.78;;;20.02;;
69878;SDS011;57161;43.136;24.706;2022-12-29T06:21:06;40.90;;;20.90;;
69878;SDS011;57161;43.136;24.706;2022-12-29T06:23:31;30.35;;;15.73;;
69878;SDS011;57161;43.136;24.706;2022-12-29T06:25:57;21.05;;;11.95;;
69878;SDS011;57161;43.136;24.706;2022-12-29T06:28:22;20.08;;;10.43;;
69878;SDS011;57161;43.136;24.706;2022-12-29T06:30:48;25.50;;;13.38;;
69878;SDS011;57161;43.136;24.706;2022-12-29T06:33:14;38.33;;;17.27;;
69878;SDS011;57161;43.136;24.706;2022-12-29T06:35:41;31.80;;;17.77;;
69878;SDS011;57161;43.136;24.706;2022-12-29T06:38:07;33.95;;;19.58;;
69878;SDS011;57161;43.136;24.706;2022-12-29T06:40:33;32.45;;;16.92;;
69878;SDS011;57161;43.136;24.706;2022-12-29T06:42:58;32.40;;;16.80;;
69878;SDS011;57161;43.136;24.706;2022-12-29T06:45:24;20.00;;;11.15;;
69878;SDS011;57161;43.136;24.706;2022-12-29T06:47:49;17.65;;;9.05;;
69878;SDS011;57161;43.136;24.706;2022-12-29T06:50:15;14.07;;;8.20;;
69878;SDS011;57161;43.136;24.706;2022-12-29T06:52:40;17.20;;;10.25;;
69878;SDS011;57161;43.136;24.706;2022-12-29T06:55:06;20.38;;;10.55;;
69878;SDS011;57161;43.136;24.706;2022-12-29T06:57:32;18.73;;;10.77;;
69878;SDS011;57161;43.136;24.706;2022-12-29T06:59:57;17.65;;;10.23;;
69878;SDS011;57161;43.136;24.706;2022-12-29T07:02:23;18.95;;;10.43;;
69878;SDS011;57161;43.136;24.706;2022-12-29T07:04:50;22.40;;;12.02;;
69878;SDS011;57161;43.136;24.706;2022-12-29T07:07:17;21.55;;;12.20;;
69878;SDS011;57161;43.136;24.706;2022-12-29T07:09:43;24.67;;;12.93;;
69878;SDS011;57161;43.136;24.706;2022-12-29T07:12:09;71.15;;;31.33;;
69878;SDS011;57161;43.136;24.706;2022-12-29T07:14:34;148.55;;;86.60;;
69878;SDS011;57161;43.136;24.706;2022-12-29T07:17:01;101.85;;;58.35;;
69878;SDS011;57161;43.136;24.706;2022-12-29T07:19:27;76.53;;;40.58;;
69878;SDS011;57161;43.136;24.706;2022-12-29T07:21:54;50.45;;;23.63;;
69878;SDS011;57161;43.136;24.706;2022-12-29T07:24:19;17.38;;;11.55;;
69878;SDS011;57161;43.136;24.706;2022-12-29T07:26:45;17.80;;;9.75;;
69878;SDS011;57161;43.136;24.706;2022-12-29T07:29:10;13.27;;;7.78;;
69878;SDS011;57161;43.136;24.706;2022-12-29T07:31:36;12.63;;;7.47;;
69878;SDS011;57161;43.136;24.706;2022-12-29T07:34:01;17.88;;;7.80;;
69878;SDS011;57161;43.136;24.706;2022-12-29T07:36:27;14.48;;;8.13;;
69878;SDS011;57161;43.136;24.706;2022-12-29T07:38:52;17.65;;;8.23;;
69878;SDS011;57161;43.136;24.706;2022-12-29T07:41:18;15.88;;;7.82;;
69878;SDS011;57161;43.136;24.706;2022-12-29T07:43:46;12.18;;;7.85;;
69878;SDS011;57161;43.136;24.706;2022-12-29T07:46:12;12.73;;;7.57;;
69878;SDS011;57161;43.136;24.706;2022-12-29T07:48:38;12.93;;;7.90;;
69878;SDS011;57161;43.136;24.706;2022-12-29T07:51:03;13.82;;;8.07;;
69878;SDS011;57161;43.136;24.706;2022-12-29T07:53:29;13.88;;;7.82;;
69878;SDS011;57161;43.136;24.706;2022-12-29T07:55:55;11.63;;;7.50;;
69878;SDS011;57161;43.136;24.706;2022-12-29T07:58:20;11.75;;;7.55;;
69878;SDS011;57161;43.136;24.706;2022-12-29T08:00:46;11.93;;;7.55;;
69878;SDS011;57161;43.136;24.706;2022-12-29T08:03:12;12.77;;;8.02;;
69878;SDS011;57161;43.136;24.706;2022-12-29T08:05:37;12.73;;;7.97;;
69878;SDS011;57161;43.136;24.706;2022-12-29T08:08:03;16.80;;;8.40;;
69878;SDS011;57161;43.136;24.706;2022-12-29T08:10:28;12.43;;;7.88;;
69878;SDS011;57161;43.136;24.706;2022-12-29T08:12:54;11.60;;;7.35;;
69878;SDS011;57161;43.136;24.706;2022-12-29T08:15:19;12.00;;;7.40;;
69878;SDS011;57161;43.136;24.706;2022-12-29T08:17:45;16.10;;;7.70;;
69878;SDS011;57161;43.136;24.706;2022-12-29T08:20:13;14.32;;;7.50;;
69878;SDS011;57161;43.136;24.706;2022-12-29T08:22:38;15.75;;;8.07;;
69878;SDS011;57161;43.136;24.706;2022-12-29T08:25:04;12.60;;;6.85;;
69878;SDS011;57161;43.136;24.706;2022-12-29T08:27:29;12.98;;;7.55;;
69878;SDS011;57161;43.136;24.706;2022-12-29T08:29:55;14.88;;;7.20;;
69878;SDS011;57161;43.136;24.706;2022-12-29T08:32:20;15.85;;;7.13;;
69878;SDS011;57161;43.136;24.706;2022-12-29T08:34:46;14.27;;;6.88;;
69878;SDS011;57161;43.136;24.706;2022-12-29T08:37:11;12.98;;;7.80;;
69878;SDS011;57161;43.136;24.706;2022-12-29T08:39:37;11.48;;;7.20;;
69878;SDS011;57161;43.136;24.706;2022-12-29T08:42:02;11.32;;;7.05;;
69878;SDS011;57161;43.136;24.706;2022-12-29T08:44:28;11.05;;;7.13;;
69878;SDS011;57161;43.136;24.706;2022-12-29T08:46:53;13.45;;;7.00;;
69878;SDS011;57161;43.136;24.706;2022-12-29T08:49:18;16.33;;;7.55;;
69878;SDS011;57161;43.136;24.706;2022-12-29T08:51:44;13.73;;;7.40;;
69878;SDS011;57161;43.136;24.706;2022-12-29T08:54:10;12.07;;;7.78;;
69878;SDS011;57161;43.136;24.706;2022-12-29T08:56:35;13.98;;;7.63;;
69878;SDS011;57161;43.136;24.706;2022-12-29T08:59:00;12.85;;;6.78;;
69878;SDS011;57161;43.136;24.706;2022-12-29T09:01:26;12.95;;;7.60;;
69878;SDS011;57161;43.136;24.706;2022-12-29T09:03:52;9.95;;;6.63;;
69878;SDS011;57161;43.136;24.706;2022-12-29T09:06:19;11.70;;;7.20;;
69878;SDS011;57161;43.136;24.706;2022-12-29T09:08:45;11.45;;;6.88;;
69878;SDS011;57161;43.136;24.706;2022-12-29T09:13:36;12.57;;;7.22;;
69878;SDS011;57161;43.136;24.706;2022-12-29T09:16:01;17.95;;;10.43;;
69878;SDS011;57161;43.136;24.706;2022-12-29T09:18:27;16.88;;;9.13;;
69878;SDS011;57161;43.136;24.706;2022-12-29T09:20:59;11.82;;;7.22;;
69878;SDS011;57161;43.136;24.706;2022-12-29T09:23:26;13.82;;;6.80;;
69878;SDS011;57161;43.136;24.706;2022-12-29T09:25:52;11.00;;;6.40;;
69878;SDS011;57161;43.136;24.706;2022-12-29T09:28:18;8.55;;;5.50;;
69878;SDS011;57161;43.136;24.706;2022-12-29T09:30:44;14.77;;;6.20;;
69878;SDS011;57161;43.136;24.706;2022-12-29T09:33:09;12.75;;;5.60;;
69878;SDS011;57161;43.136;24.706;2022-12-29T09:35:35;13.57;;;8.32;;
69878;SDS011;57161;43.136;24.706;2022-12-29T09:38:01;19.48;;;11.90;;
69878;SDS011;57161;43.136;24.706;2022-12-29T09:40:27;27.80;;;20.98;;
69878;SDS011;57161;43.136;24.706;2022-12-29T09:43:01;15.13;;;10.10;;
69878;SDS011;57161;43.136;24.706;2022-12-29T09:48:53;16.58;;;9.02;;
69878;SDS011;57161;43.136;24.706;2022-12-29T09:51:32;15.10;;;9.70;;
69878;SDS011;57161;43.136;24.706;2022-12-29T09:54:01;18.98;;;9.80;;
69878;SDS011;57161;43.136;24.706;2022-12-29T09:56:41;16.83;;;9.57;;
69878;SDS011;57161;43.136;24.706;2022-12-29T09:59:13;17.45;;;8.55;;
69878;SDS011;57161;43.136;24.706;2022-12-29T10:01:53;24.48;;;9.93;;
69878;SDS011;57161;43.136;24.706;2022-12-29T10:04:25;14.48;;;7.03;;
69878;SDS011;57161;43.136;24.706;2022-12-29T10:25:44;14.95;;;10.00;;
69878;SDS011;57161;43.136;24.706;2022-12-29T10:28:20;23.30;;;12.93;;
69878;SDS011;57161;43.136;24.706;2022-12-29T10:30:48;20.70;;;12.85;;
69878;SDS011;57161;43.136;24.706;2022-12-29T10:33:17;18.92;;;12.00;;
69878;SDS011;57161;43.136;24.706;2022-12-29T10:35:48;18.60;;;10.90;;
69878;SDS011;57161;43.136;24.706;2022-12-29T10:41:06;19.55;;;10.85;;
69878;SDS011;57161;43.136;24.706;2022-12-29T10:43:44;26.30;;;15.45;;
69878;SDS011;57161;43.136;24.706;2022-12-29T10:46:16;18.67;;;12.82;;
69878;SDS011;57161;43.136;24.706;2022-12-29T10:48:46;21.52;;;13.00;;
69878;SDS011;57161;43.136;24.706;2022-12-29T10:51:15;12.10;;;7.80;;
69878;SDS011;57161;43.136;24.706;2022-12-29T10:54:33;14.63;;;8.93;;
69878;SDS011;57161;43.136;24.706;2022-12-29T10:56:43;22.83;;;10.15;;
69878;SDS011;57161;43.136;24.706;2022-12-29T10:59:21;16.23;;;9.55;;
69878;SDS011;57161;43.136;24.706;2022-12-29T11:07:35;14.85;;;8.38;;
69878;SDS011;57161;43.136;24.706;2022-12-29T11:10:44;22.38;;;12.80;;
69878;SDS011;57161;43.136;24.706;2022-12-29T11:13:25;19.88;;;9.68;;
69878;SDS011;57161;43.136;24.706;2022-12-29T11:15:51;21.98;;;11.88;;
69878;SDS011;57161;43.136;24.706;2022-12-29T11:18:38;12.27;;;8.15;;
69878;SDS011;57161;43.136;24.706;2022-12-29T11:21:04;15.43;;;8.77;;
69878;SDS011;57161;43.136;24.706;2022-12-29T11:23:39;24.67;;;11.80;;
69878;SDS011;57161;43.136;24.706;2022-12-29T11:26:07;20.05;;;12.20;;
69878;SDS011;57161;43.136;24.706;2022-12-29T11:28:33;14.32;;;8.70;;
69878;SDS011;57161;43.136;24.706;2022-12-29T11:31:00;28.42;;;15.00;;
69878;SDS011;57161;43.136;24.706;2022-12-29T11:33:27;35.80;;;18.85;;
69878;SDS011;57161;43.136;24.706;2022-12-29T11:35:58;20.15;;;12.02;;
69878;SDS011;57161;43.136;24.706;2022-12-29T11:38:35;11.48;;;7.50;;
69878;SDS011;57161;43.136;24.706;2022-12-29T11:41:04;16.38;;;10.60;;
69878;SDS011;57161;43.136;24.706;2022-12-29T11:43:38;24.35;;;14.25;;
69878;SDS011;57161;43.136;24.706;2022-12-29T11:46:15;18.50;;;10.90;;
69878;SDS011;57161;43.136;24.706;2022-12-29T11:48:43;36.75;;;21.13;;
69878;SDS011;57161;43.136;24.706;2022-12-29T11:51:12;14.30;;;8.88;;
69878;SDS011;57161;43.136;24.706;2022-12-29T11:53:47;21.48;;;12.68;;
69878;SDS011;57161;43.136;24.706;2022-12-29T11:56:20;29.58;;;16.55;;
69878;SDS011;57161;43.136;24.706;2022-12-29T11:58:55;26.05;;;15.55;;
69878;SDS011;57161;43.136;24.706;2022-12-29T12:01:33;19.35;;;12.10;;
69878;SDS011;57161;43.136;24.706;2022-12-29T12:04:03;19.70;;;12.45;;
69878;SDS011;57161;43.136;24.706;2022-12-29T12:06:34;27.15;;;15.65;;
69878;SDS011;57161;43.136;24.706;2022-12-29T12:09:16;21.63;;;11.07;;
69878;SDS011;57161;43.136;24.706;2022-12-29T12:11:52;38.17;;;17.90;;
69878;SDS011;57161;43.136;24.706;2022-12-29T12:16:58;22.50;;;10.88;;
69878;SDS011;57161;43.136;24.706;2022-12-29T12:19:54;26.85;;;14.57;;
69878;SDS011;57161;43.136;24.706;2022-12-29T12:22:27;18.60;;;10.93;;
69878;SDS011;57161;43.136;24.706;2022-12-29T12:25:02;22.95;;;11.68;;
69878;SDS011;57161;43.136;24.706;2022-12-29T12:28:00;21.63;;;11.82;;
69878;SDS011;57161;43.136;24.706;2022-12-29T12:30:41;23.85;;;8.65;;
69878;SDS011;57161;43.136;24.706;2022-12-29T12:43:37;22.85;;;12.73;;
69878;SDS011;57161;43.136;24.706;2022-12-29T12:57:17;16.00;;;9.73;;
69878;SDS011;57161;43.136;24.706;2022-12-29T13:10:48;17.90;;;9.50;;
69878;SDS011;57161;43.136;24.706;2022-12-29T13:24:15;24.35;;;13.68;;
69878;SDS011;57161;43.136;24.706;2022-12-29T13:26:44;22.85;;;11.65;;
69878;SDS011;57161;43.136;24.706;2022-12-29T13:29:20;15.32;;;10.00;;
69878;SDS011;57161;43.136;24.706;2022-12-29T13:37:26;20.48;;;12.48;;
69878;SDS011;57161;43.136;24.706;2022-12-29T13:39:56;36.92;;;19.27;;
69878;SDS011;57161;43.136;24.706;2022-12-29T13:42:27;38.42;;;21.50;;
69878;SDS011;57161;43.136;24.706;2022-12-29T13:45:02;20.17;;;12.07;;
69878;SDS011;57161;43.136;24.706;2022-12-29T13:48:06;49.63;;;29.10;;
69878;SDS011;57161;43.136;24.706;2022-12-29T13:50:42;40.55;;;23.63;;
69878;SDS011;57161;43.136;24.706;2022-12-29T13:53:23;23.42;;;14.15;;
69878;SDS011;57161;43.136;24.706;2022-12-29T13:56:16;20.50;;;12.30;;
69878;SDS011;57161;43.136;24.706;2022-12-29T14:01:26;52.92;;;24.38;;
69878;SDS011;57161;43.136;24.706;2022-12-29T14:03:59;139.95;;;49.25;;
69878;SDS011;57161;43.136;24.706;2022-12-29T14:09:00;331.60;;;112.43;;
69878;SDS011;57161;43.136;24.706;2022-12-29T14:11:35;231.80;;;85.60;;
69878;SDS011;57161;43.136;24.706;2022-12-29T14:16:52;63.05;;;28.08;;
69878;SDS011;57161;43.136;24.706;2022-12-29T14:19:29;42.25;;;23.30;;
69878;SDS011;57161;43.136;24.706;2022-12-29T14:21:57;31.42;;;16.52;;
69878;SDS011;57161;43.136;24.706;2022-12-29T14:31:54;40.97;;;19.77;;
69878;SDS011;57161;43.136;24.706;2022-12-29T14:42:00;111.05;;;51.92;;
69878;SDS011;57161;43.136;24.706;2022-12-29T14:44:26;157.32;;;75.43;;
69878;SDS011;57161;43.136;24.706;2022-12-29T14:46:56;178.85;;;72.65;;
69878;SDS011;57161;43.136;24.706;2022-12-29T14:49:29;168.68;;;69.15;;
69878;SDS011;57161;43.136;24.706;2022-12-29T14:52:31;212.82;;;103.47;;
69878;SDS011;57161;43.136;24.706;2022-12-29T14:59:52;179.10;;;84.45;;
69878;SDS011;57161;43.136;24.706;2022-12-29T15:02:20;143.90;;;70.47;;
69878;SDS011;57161;43.136;24.706;2022-12-29T15:04:49;145.88;;;73.70;;
69878;SDS011;57161;43.136;24.706;2022-12-29T15:07:16;158.73;;;77.22;;
69878;SDS011;57161;43.136;24.706;2022-12-29T15:09:45;205.57;;;90.75;;
69878;SDS011;57161;43.136;24.706;2022-12-29T15:12:19;222.85;;;96.78;;
69878;SDS011;57161;43.136;24.706;2022-12-29T15:14:55;200.32;;;94.70;;
69878;SDS011;57161;43.136;24.706;2022-12-29T15:17:26;250.75;;;116.35;;
69878;SDS011;57161;43.136;24.706;2022-12-29T15:19:54;243.18;;;114.85;;
69878;SDS011;57161;43.136;24.706;2022-12-29T15:22:21;296.02;;;156.20;;
69878;SDS011;57161;43.136;24.706;2022-12-29T15:24:48;259.02;;;122.55;;
69878;SDS011;57161;43.136;24.706;2022-12-29T15:27:16;225.32;;;90.93;;
69878;SDS011;57161;43.136;24.706;2022-12-29T15:29:46;229.43;;;89.80;;
69878;SDS011;57161;43.136;24.706;2022-12-29T15:34:40;210.20;;;85.65;;
69878;SDS011;57161;43.136;24.706;2022-12-29T15:37:07;182.45;;;78.28;;
69878;SDS011;57161;43.136;24.706;2022-12-29T15:39:33;165.65;;;74.07;;
69878;SDS011;57161;43.136;24.706;2022-12-29T15:42:02;145.50;;;67.07;;
69878;SDS011;57161;43.136;24.706;2022-12-29T15:44:38;163.48;;;64.97;;
69878;SDS011;57161;43.136;24.706;2022-12-29T15:47:11;187.10;;;71.50;;
69878;SDS011;57161;43.136;24.706;2022-12-29T15:49:45;202.02;;;76.15;;
69878;SDS011;57161;43.136;24.706;2022-12-29T15:52:17;216.68;;;75.97;;
69878;SDS011;57161;43.136;24.706;2022-12-29T15:54:45;193.63;;;73.47;;
69878;SDS011;57161;43.136;24.706;2022-12-29T15:57:23;177.00;;;69.03;;
69878;SDS011;57161;43.136;24.706;2022-12-29T16:02:23;147.45;;;62.28;;
69878;SDS011;57161;43.136;24.706;2022-12-29T16:04:50;118.30;;;52.17;;
69878;SDS011;57161;43.136;24.706;2022-12-29T16:09:57;75.57;;;35.92;;
69878;SDS011;57161;43.136;24.706;2022-12-29T16:12:26;69.88;;;37.60;;
69878;SDS011;57161;43.136;24.706;2022-12-29T16:14:57;64.25;;;33.60;;
69878;SDS011;57161;43.136;24.706;2022-12-29T16:17:25;67.80;;;33.67;;
69878;SDS011;57161;43.136;24.706;2022-12-29T16:19:56;77.82;;;37.28;;
69878;SDS011;57161;43.136;24.706;2022-12-29T16:22:31;66.72;;;35.45;;
69878;SDS011;57161;43.136;24.706;2022-12-29T16:24:58;81.05;;;36.80;;
69878;SDS011;57161;43.136;24.706;2022-12-29T16:27:40;103.38;;;47.55;;
69878;SDS011;57161;43.136;24.706;2022-12-29T16:30:16;108.80;;;49.45;;
69878;SDS011;57161;43.136;24.706;2022-12-29T16:32:48;93.22;;;48.03;;
69878;SDS011;57161;43.136;24.706;2022-12-29T16:35:21;91.50;;;40.40;;
69878;SDS011;57161;43.136;24.706;2022-12-29T16:38:06;87.22;;;41.17;;
69878;SDS011;57161;43.136;24.706;2022-12-29T16:40:32;80.22;;;38.65;;
69878;SDS011;57161;43.136;24.706;2022-12-29T16:43:01;94.22;;;44.38;;
69878;SDS011;57161;43.136;24.706;2022-12-29T16:48:27;116.60;;;55.08;;
69878;SDS011;57161;43.136;24.706;2022-12-29T16:51:05;100.32;;;52.60;;
69878;SDS011;57161;43.136;24.706;2022-12-29T16:53:37;112.60;;;57.35;;
69878;SDS011;57161;43.136;24.706;2022-12-29T16:56:08;166.07;;;80.13;;
69878;SDS011;57161;43.136;24.706;2022-12-29T16:58:39;135.35;;;71.45;;
69878;SDS011;57161;43.136;24.706;2022-12-29T17:01:05;296.63;;;195.40;;
69878;SDS011;57161;43.136;24.706;2022-12-29T17:03:40;85.30;;;45.47;;
69878;SDS011;57161;43.136;24.706;2022-12-29T17:06:14;59.00;;;31.00;;
69878;SDS011;57161;43.136;24.706;2022-12-29T17:08:42;82.88;;;43.53;;
69878;SDS011;57161;43.136;24.706;2022-12-29T17:11:22;66.30;;;38.65;;
69878;SDS011;57161;43.136;24.706;2022-12-29T17:16:45;370.00;;;171.60;;
69878;SDS011;57161;43.136;24.706;2022-12-29T17:19:15;428.77;;;201.75;;
69878;SDS011;57161;43.136;24.706;2022-12-29T17:21:42;298.10;;;135.80;;
69878;SDS011;57161;43.136;24.706;2022-12-29T17:24:17;246.63;;;114.65;;